sensor_id;sensor_type;location;lat;lon;timestamp;P1;durP1;ratioP1;P2;durP2;ratioP2
25535;SDS011;13431;51.352;6.412;2022-08-03T00:02:16;5.07;;;2.85;;
25535;SDS011;13431;51.352;6.412;2022-08-03T00:04:44;6.35;;;3.03;;
25535;SDS011;13431;51.352;6.412;2022-08-03T00:07:13;3.60;;;2.22;;
25535;SDS011;13431;51.352;6.412;2022-08-03T00:09:40;2.58;;;2.38;;
25535;SDS011;13431;51.352;6.412;2022-08-03T00:12:07;4.07;;;1.92;;
25535;SDS011;13431;51.352;6.412;2022-08-03T00:14:35;5.82;;;2.72;;
25535;SDS011;13431;51.352;6.412;2022-08-03T00:17:03;2.80;;;2.38;;
25535;SDS011;13431;51.352;6.412;2022-08-03T00:19:30;3.80;;;2.42;;
25535;SDS011;13431;51.352;6.412;2022-08-03T00:21:58;9.35;;;2.75;;
25535;SDS011;13431;51.352;6.412;2022-08-03T00:24:26;6.53;;;3.20;;
25535;SDS011;13431;51.352;6.412;2022-08-03T00:26:53;3.90;;;2.65;;
25535;SDS011;13431;51.352;6.412;2022-08-03T00:29:21;5.50;;;2.70;;
25535;SDS011;13431;51.352;6.412;2022-08-03T00:31:48;3.75;;;2.40;;
25535;SDS011;13431;51.352;6.412;2022-08-03T00:34:25;9.68;;;3.65;;
25535;SDS011;13431;51.352;6.412;2022-08-03T00:37:02;4.80;;;2.50;;
25535;SDS011;13431;51.352;6.412;2022-08-03T00:39:29;2.42;;;2.20;;
25535;SDS011;13431;51.352;6.412;2022-08-03T00:42:00;3.75;;;2.55;;
25535;SDS011;13431;51.352;6.412;2022-08-03T00:44:28;5.68;;;2.45;;
25535;SDS011;13431;51.352;6.412;2022-08-03T00:46:56;4.72;;;2.50;;
25535;SDS011;13431;51.352;6.412;2022-08-03T00:49:26;2.95;;;2.65;;
25535;SDS011;13431;51.352;6.412;2022-08-03T00:51:54;6.32;;;2.58;;
25535;SDS011;13431;51.352;6.412;2022-08-03T00:54:22;3.55;;;2.60;;
25535;SDS011;13431;51.352;6.412;2022-08-03T00:56:51;4.30;;;2.92;;
25535;SDS011;13431;51.352;6.412;2022-08-03T01:01:53;3.30;;;2.78;;
25535;SDS011;13431;51.352;6.412;2022-08-03T01:04:20;2.75;;;2.55;;
25535;SDS011;13431;51.352;6.412;2022-08-03T01:06:49;3.80;;;3.40;;
25535;SDS011;13431;51.352;6.412;2022-08-03T01:12:50;6.07;;;3.58;;
25535;SDS011;13431;51.352;6.412;2022-08-03T01:18:06;7.38;;;3.60;;
25535;SDS011;13431;51.352;6.412;2022-08-03T01:20:43;4.88;;;3.58;;
25535;SDS011;13431;51.352;6.412;2022-08-03T01:28:45;3.97;;;2.88;;
25535;SDS011;13431;51.352;6.412;2022-08-03T01:31:28;4.05;;;2.67;;
25535;SDS011;13431;51.352;6.412;2022-08-03T01:34:24;3.78;;;2.63;;
25535;SDS011;13431;51.352;6.412;2022-08-03T01:36:55;7.78;;;3.10;;
25535;SDS011;13431;51.352;6.412;2022-08-03T01:39:25;6.93;;;3.50;;
25535;SDS011;13431;51.352;6.412;2022-08-03T01:41:56;3.05;;;2.85;;
25535;SDS011;13431;51.352;6.412;2022-08-03T01:44:28;3.72;;;3.03;;
25535;SDS011;13431;51.352;6.412;2022-08-03T01:47:00;6.15;;;2.90;;
25535;SDS011;13431;51.352;6.412;2022-08-03T01:49:29;3.90;;;2.90;;
25535;SDS011;13431;51.352;6.412;2022-08-03T01:51:59;5.32;;;2.67;;
25535;SDS011;13431;51.352;6.412;2022-08-03T01:54:31;3.38;;;2.63;;
25535;SDS011;13431;51.352;6.412;2022-08-03T01:57:02;3.13;;;2.58;;
25535;SDS011;13431;51.352;6.412;2022-08-03T01:59:31;2.90;;;2.38;;
25535;SDS011;13431;51.352;6.412;2022-08-03T02:02:02;7.82;;;3.13;;
25535;SDS011;13431;51.352;6.412;2022-08-03T02:04:51;3.55;;;2.80;;
25535;SDS011;13431;51.352;6.412;2022-08-03T02:07:21;5.05;;;2.42;;
25535;SDS011;13431;51.352;6.412;2022-08-03T02:09:51;4.00;;;2.60;;
25535;SDS011;13431;51.352;6.412;2022-08-03T02:12:22;3.10;;;2.45;;
25535;SDS011;13431;51.352;6.412;2022-08-03T02:14:51;3.17;;;2.88;;
25535;SDS011;13431;51.352;6.412;2022-08-03T02:17:19;5.25;;;2.83;;
25535;SDS011;13431;51.352;6.412;2022-08-03T02:20:06;4.78;;;2.78;;
25535;SDS011;13431;51.352;6.412;2022-08-03T02:22:34;5.53;;;2.60;;
25535;SDS011;13431;51.352;6.412;2022-08-03T02:25:07;5.90;;;3.50;;
25535;SDS011;13431;51.352;6.412;2022-08-03T02:27:36;4.10;;;2.78;;
25535;SDS011;13431;51.352;6.412;2022-08-03T02:30:09;3.25;;;2.80;;
25535;SDS011;13431;51.352;6.412;2022-08-03T02:32:40;4.63;;;2.83;;
25535;SDS011;13431;51.352;6.412;2022-08-03T02:35:14;6.00;;;3.35;;
25535;SDS011;13431;51.352;6.412;2022-08-03T02:37:45;7.30;;;2.95;;
25535;SDS011;13431;51.352;6.412;2022-08-03T02:40:27;4.60;;;2.72;;
25535;SDS011;13431;51.352;6.412;2022-08-03T02:42:57;5.68;;;3.50;;
25535;SDS011;13431;51.352;6.412;2022-08-03T02:45:28;3.63;;;3.20;;
25535;SDS011;13431;51.352;6.412;2022-08-03T02:47:58;3.83;;;3.05;;
25535;SDS011;13431;51.352;6.412;2022-08-03T02:50:28;3.92;;;2.90;;
25535;SDS011;13431;51.352;6.412;2022-08-03T02:52:59;4.22;;;2.53;;
25535;SDS011;13431;51.352;6.412;2022-08-03T02:55:28;5.50;;;3.80;;
25535;SDS011;13431;51.352;6.412;2022-08-03T02:57:57;3.97;;;3.28;;
25535;SDS011;13431;51.352;6.412;2022-08-03T03:00:28;4.40;;;3.85;;
25535;SDS011;13431;51.352;6.412;2022-08-03T03:02:57;4.05;;;3.65;;
25535;SDS011;13431;51.352;6.412;2022-08-03T03:05:27;4.03;;;3.58;;
25535;SDS011;13431;51.352;6.412;2022-08-03T03:08:17;6.28;;;3.72;;
25535;SDS011;13431;51.352;6.412;2022-08-03T03:10:52;7.10;;;3.78;;
25535;SDS011;13431;51.352;6.412;2022-08-03T03:13:22;5.68;;;3.90;;
25535;SDS011;13431;51.352;6.412;2022-08-03T03:15:50;5.28;;;4.05;;
25535;SDS011;13431;51.352;6.412;2022-08-03T03:18:19;5.82;;;3.97;;
25535;SDS011;13431;51.352;6.412;2022-08-03T03:20:50;5.63;;;3.78;;
25535;SDS011;13431;51.352;6.412;2022-08-03T03:23:19;8.10;;;4.07;;
25535;SDS011;13431;51.352;6.412;2022-08-03T03:25:49;6.30;;;4.55;;
25535;SDS011;13431;51.352;6.412;2022-08-03T03:28:17;6.00;;;4.50;;
25535;SDS011;13431;51.352;6.412;2022-08-03T03:30:46;5.53;;;4.07;;
25535;SDS011;13431;51.352;6.412;2022-08-03T03:33:19;6.68;;;5.10;;
25535;SDS011;13431;51.352;6.412;2022-08-03T03:35:47;5.38;;;4.40;;
25535;SDS011;13431;51.352;6.412;2022-08-03T03:38:16;7.97;;;5.28;;
25535;SDS011;13431;51.352;6.412;2022-08-03T03:40:43;11.80;;;4.72;;
25535;SDS011;13431;51.352;6.412;2022-08-03T03:43:11;7.10;;;4.63;;
25535;SDS011;13431;51.352;6.412;2022-08-03T03:45:39;7.70;;;4.80;;
25535;SDS011;13431;51.352;6.412;2022-08-03T03:48:08;7.45;;;4.75;;
25535;SDS011;13431;51.352;6.412;2022-08-03T03:50:35;6.75;;;4.95;;
25535;SDS011;13431;51.352;6.412;2022-08-03T03:53:11;7.40;;;4.78;;
25535;SDS011;13431;51.352;6.412;2022-08-03T03:55:41;7.63;;;4.75;;
25535;SDS011;13431;51.352;6.412;2022-08-03T03:58:28;5.88;;;4.35;;
25535;SDS011;13431;51.352;6.412;2022-08-03T04:00:56;5.43;;;4.32;;
25535;SDS011;13431;51.352;6.412;2022-08-03T04:03:24;8.68;;;4.22;;
25535;SDS011;13431;51.352;6.412;2022-08-03T04:05:51;5.95;;;4.43;;
25535;SDS011;13431;51.352;6.412;2022-08-03T04:08:39;5.40;;;4.57;;
25535;SDS011;13431;51.352;6.412;2022-08-03T04:11:46;6.43;;;5.00;;
25535;SDS011;13431;51.352;6.412;2022-08-03T04:14:24;7.82;;;4.63;;
25535;SDS011;13431;51.352;6.412;2022-08-03T04:16:55;5.70;;;4.47;;
25535;SDS011;13431;51.352;6.412;2022-08-03T04:19:31;5.60;;;4.55;;
25535;SDS011;13431;51.352;6.412;2022-08-03T04:22:08;10.32;;;4.53;;
25535;SDS011;13431;51.352;6.412;2022-08-03T04:24:42;5.07;;;4.50;;
25535;SDS011;13431;51.352;6.412;2022-08-03T04:27:16;6.32;;;4.70;;
25535;SDS011;13431;51.352;6.412;2022-08-03T04:29:48;10.18;;;5.00;;
25535;SDS011;13431;51.352;6.412;2022-08-03T04:32:17;4.93;;;4.10;;
25535;SDS011;13431;51.352;6.412;2022-08-03T04:34:46;9.52;;;4.75;;
25535;SDS011;13431;51.352;6.412;2022-08-03T04:37:13;5.07;;;4.07;;
25535;SDS011;13431;51.352;6.412;2022-08-03T04:39:48;10.82;;;4.28;;
25535;SDS011;13431;51.352;6.412;2022-08-03T04:42:22;5.40;;;3.50;;
25535;SDS011;13431;51.352;6.412;2022-08-03T04:44:51;8.32;;;4.07;;
25535;SDS011;13431;51.352;6.412;2022-08-03T04:47:26;8.13;;;4.70;;
25535;SDS011;13431;51.352;6.412;2022-08-03T04:49:55;4.40;;;3.63;;
25535;SDS011;13431;51.352;6.412;2022-08-03T04:52:22;7.32;;;3.83;;
25535;SDS011;13431;51.352;6.412;2022-08-03T04:54:50;7.25;;;3.97;;
25535;SDS011;13431;51.352;6.412;2022-08-03T04:57:18;5.97;;;3.78;;
25535;SDS011;13431;51.352;6.412;2022-08-03T04:59:52;8.02;;;3.83;;
25535;SDS011;13431;51.352;6.412;2022-08-03T05:02:28;7.35;;;4.25;;
25535;SDS011;13431;51.352;6.412;2022-08-03T05:04:56;7.00;;;3.75;;
25535;SDS011;13431;51.352;6.412;2022-08-03T05:07:23;7.63;;;3.72;;
25535;SDS011;13431;51.352;6.412;2022-08-03T05:09:51;9.95;;;4.47;;
25535;SDS011;13431;51.352;6.412;2022-08-03T05:12:28;7.88;;;4.35;;
25535;SDS011;13431;51.352;6.412;2022-08-03T05:14:59;10.75;;;3.95;;
25535;SDS011;13431;51.352;6.412;2022-08-03T05:17:27;12.25;;;4.50;;
25535;SDS011;13431;51.352;6.412;2022-08-03T05:19:55;7.60;;;4.28;;
25535;SDS011;13431;51.352;6.412;2022-08-03T05:22:22;12.13;;;5.10;;
25535;SDS011;13431;51.352;6.412;2022-08-03T05:24:50;9.02;;;4.10;;
25535;SDS011;13431;51.352;6.412;2022-08-03T05:27:17;5.57;;;3.88;;
25535;SDS011;13431;51.352;6.412;2022-08-03T05:29:45;6.65;;;3.97;;
25535;SDS011;13431;51.352;6.412;2022-08-03T05:32:14;6.22;;;4.28;;
25535;SDS011;13431;51.352;6.412;2022-08-03T05:34:42;6.43;;;4.20;;
25535;SDS011;13431;51.352;6.412;2022-08-03T05:37:09;6.07;;;3.50;;
25535;SDS011;13431;51.352;6.412;2022-08-03T05:39:37;8.25;;;4.45;;
25535;SDS011;13431;51.352;6.412;2022-08-03T05:42:05;5.45;;;3.67;;
25535;SDS011;13431;51.352;6.412;2022-08-03T05:44:32;6.82;;;4.80;;
25535;SDS011;13431;51.352;6.412;2022-08-03T05:47:00;6.07;;;3.65;;
25535;SDS011;13431;51.352;6.412;2022-08-03T05:49:27;7.65;;;4.45;;
25535;SDS011;13431;51.352;6.412;2022-08-03T05:51:54;9.65;;;3.80;;
25535;SDS011;13431;51.352;6.412;2022-08-03T05:54:42;8.00;;;3.85;;
25535;SDS011;13431;51.352;6.412;2022-08-03T05:57:26;10.65;;;4.32;;
25535;SDS011;13431;51.352;6.412;2022-08-03T05:59:53;11.07;;;4.60;;
25535;SDS011;13431;51.352;6.412;2022-08-03T06:02:27;6.72;;;3.78;;
25535;SDS011;13431;51.352;6.412;2022-08-03T06:04:55;9.20;;;3.67;;
25535;SDS011;13431;51.352;6.412;2022-08-03T06:07:22;11.20;;;3.63;;
25535;SDS011;13431;51.352;6.412;2022-08-03T06:09:49;5.63;;;4.10;;
25535;SDS011;13431;51.352;6.412;2022-08-03T06:12:37;5.97;;;4.43;;
25535;SDS011;13431;51.352;6.412;2022-08-03T06:15:07;7.75;;;4.32;;
25535;SDS011;13431;51.352;6.412;2022-08-03T06:17:46;9.00;;;4.20;;
25535;SDS011;13431;51.352;6.412;2022-08-03T06:20:16;9.13;;;4.38;;
25535;SDS011;13431;51.352;6.412;2022-08-03T06:22:44;7.65;;;4.50;;
25535;SDS011;13431;51.352;6.412;2022-08-03T06:25:26;8.95;;;4.18;;
25535;SDS011;13431;51.352;6.412;2022-08-03T06:27:54;8.27;;;4.45;;
25535;SDS011;13431;51.352;6.412;2022-08-03T06:30:22;9.32;;;4.25;;
25535;SDS011;13431;51.352;6.412;2022-08-03T06:32:49;7.30;;;4.43;;
25535;SDS011;13431;51.352;6.412;2022-08-03T06:35:18;9.07;;;4.28;;
25535;SDS011;13431;51.352;6.412;2022-08-03T06:37:47;9.65;;;3.75;;
25535;SDS011;13431;51.352;6.412;2022-08-03T06:40:16;7.82;;;3.88;;
25535;SDS011;13431;51.352;6.412;2022-08-03T06:42:47;7.25;;;3.88;;
25535;SDS011;13431;51.352;6.412;2022-08-03T06:45:16;6.43;;;4.28;;
25535;SDS011;13431;51.352;6.412;2022-08-03T06:47:43;4.60;;;3.78;;
25535;SDS011;13431;51.352;6.412;2022-08-03T06:50:10;4.63;;;4.13;;
25535;SDS011;13431;51.352;6.412;2022-08-03T06:52:43;7.97;;;3.50;;
25535;SDS011;13431;51.352;6.412;2022-08-03T06:55:11;6.43;;;3.67;;
25535;SDS011;13431;51.352;6.412;2022-08-03T06:57:38;8.63;;;3.90;;
25535;SDS011;13431;51.352;6.412;2022-08-03T07:00:06;6.72;;;4.10;;
25535;SDS011;13431;51.352;6.412;2022-08-03T07:02:38;4.07;;;3.57;;
25535;SDS011;13431;51.352;6.412;2022-08-03T07:05:06;7.50;;;3.38;;
25535;SDS011;13431;51.352;6.412;2022-08-03T07:07:35;4.43;;;3.38;;
25535;SDS011;13431;51.352;6.412;2022-08-03T07:10:03;6.18;;;3.83;;
25535;SDS011;13431;51.352;6.412;2022-08-03T07:12:32;4.97;;;3.70;;
25535;SDS011;13431;51.352;6.412;2022-08-03T07:15:01;10.35;;;3.80;;
25535;SDS011;13431;51.352;6.412;2022-08-03T07:17:30;10.30;;;3.95;;
25535;SDS011;13431;51.352;6.412;2022-08-03T07:19:59;8.40;;;3.25;;
25535;SDS011;13431;51.352;6.412;2022-08-03T07:22:28;7.50;;;3.10;;
25535;SDS011;13431;51.352;6.412;2022-08-03T07:24:55;7.60;;;2.95;;
25535;SDS011;13431;51.352;6.412;2022-08-03T07:27:23;6.68;;;3.00;;
25535;SDS011;13431;51.352;6.412;2022-08-03T07:29:53;5.88;;;3.45;;
25535;SDS011;13431;51.352;6.412;2022-08-03T07:32:21;6.63;;;3.30;;
25535;SDS011;13431;51.352;6.412;2022-08-03T07:34:49;6.15;;;2.92;;
25535;SDS011;13431;51.352;6.412;2022-08-03T07:37:16;4.65;;;2.80;;
25535;SDS011;13431;51.352;6.412;2022-08-03T07:39:44;5.85;;;2.85;;
25535;SDS011;13431;51.352;6.412;2022-08-03T07:42:11;4.70;;;2.78;;
25535;SDS011;13431;51.352;6.412;2022-08-03T07:44:39;5.38;;;2.83;;
25535;SDS011;13431;51.352;6.412;2022-08-03T07:47:06;2.90;;;2.50;;
25535;SDS011;13431;51.352;6.412;2022-08-03T07:49:38;4.28;;;2.70;;
25535;SDS011;13431;51.352;6.412;2022-08-03T07:52:07;3.70;;;2.58;;
25535;SDS011;13431;51.352;6.412;2022-08-03T07:54:54;5.35;;;2.72;;
25535;SDS011;13431;51.352;6.412;2022-08-03T07:57:21;5.50;;;2.38;;
25535;SDS011;13431;51.352;6.412;2022-08-03T07:59:49;5.22;;;2.63;;
25535;SDS011;13431;51.352;6.412;2022-08-03T08:02:37;2.70;;;2.30;;
25535;SDS011;13431;51.352;6.412;2022-08-03T08:05:05;3.60;;;2.20;;
25535;SDS011;13431;51.352;6.412;2022-08-03T08:07:33;3.63;;;2.75;;
25535;SDS011;13431;51.352;6.412;2022-08-03T08:10:00;5.47;;;2.40;;
25535;SDS011;13431;51.352;6.412;2022-08-03T08:12:27;3.65;;;2.78;;
25535;SDS011;13431;51.352;6.412;2022-08-03T08:14:55;2.60;;;2.40;;
25535;SDS011;13431;51.352;6.412;2022-08-03T08:17:23;2.40;;;2.20;;
25535;SDS011;13431;51.352;6.412;2022-08-03T08:19:50;2.80;;;2.30;;
25535;SDS011;13431;51.352;6.412;2022-08-03T08:22:19;2.65;;;2.20;;
25535;SDS011;13431;51.352;6.412;2022-08-03T08:24:57;9.20;;;2.88;;
25535;SDS011;13431;51.352;6.412;2022-08-03T08:27:25;3.80;;;2.70;;
25535;SDS011;13431;51.352;6.412;2022-08-03T08:29:52;6.28;;;3.05;;
25535;SDS011;13431;51.352;6.412;2022-08-03T08:32:28;3.58;;;3.10;;
25535;SDS011;13431;51.352;6.412;2022-08-03T08:34:55;5.68;;;2.60;;
25535;SDS011;13431;51.352;6.412;2022-08-03T08:37:23;3.85;;;2.45;;
25535;SDS011;13431;51.352;6.412;2022-08-03T08:39:50;2.50;;;2.30;;
25535;SDS011;13431;51.352;6.412;2022-08-03T08:42:18;6.20;;;2.88;;
25535;SDS011;13431;51.352;6.412;2022-08-03T08:44:45;6.75;;;2.92;;
25535;SDS011;13431;51.352;6.412;2022-08-03T08:47:13;3.00;;;2.70;;
25535;SDS011;13431;51.352;6.412;2022-08-03T08:49:41;4.82;;;2.30;;
25535;SDS011;13431;51.352;6.412;2022-08-03T08:52:29;5.88;;;2.83;;
25535;SDS011;13431;51.352;6.412;2022-08-03T08:54:58;6.53;;;2.83;;
25535;SDS011;13431;51.352;6.412;2022-08-03T08:57:37;7.05;;;2.90;;
25535;SDS011;13431;51.352;6.412;2022-08-03T09:00:10;3.05;;;2.70;;
25535;SDS011;13431;51.352;6.412;2022-08-03T09:02:41;11.82;;;3.17;;
25535;SDS011;13431;51.352;6.412;2022-08-03T09:05:10;7.60;;;2.90;;
25535;SDS011;13431;51.352;6.412;2022-08-03T09:07:40;3.85;;;2.63;;
25535;SDS011;13431;51.352;6.412;2022-08-03T09:10:09;3.25;;;2.72;;
25535;SDS011;13431;51.352;6.412;2022-08-03T09:12:44;4.00;;;2.65;;
25535;SDS011;13431;51.352;6.412;2022-08-03T09:17:44;4.80;;;2.75;;
25535;SDS011;13431;51.352;6.412;2022-08-03T09:20:17;4.13;;;2.80;;
25535;SDS011;13431;51.352;6.412;2022-08-03T09:22:52;5.75;;;2.92;;
25535;SDS011;13431;51.352;6.412;2022-08-03T09:25:40;3.28;;;2.80;;
25535;SDS011;13431;51.352;6.412;2022-08-03T09:28:12;6.90;;;3.10;;
25535;SDS011;13431;51.352;6.412;2022-08-03T09:31:02;5.78;;;2.70;;
25535;SDS011;13431;51.352;6.412;2022-08-03T09:33:30;3.20;;;2.72;;
25535;SDS011;13431;51.352;6.412;2022-08-03T09:36:02;3.70;;;2.50;;
25535;SDS011;13431;51.352;6.412;2022-08-03T09:38:29;2.88;;;2.50;;
25535;SDS011;13431;51.352;6.412;2022-08-03T09:40:57;2.95;;;2.53;;
25535;SDS011;13431;51.352;6.412;2022-08-03T09:43:26;4.20;;;2.97;;
25535;SDS011;13431;51.352;6.412;2022-08-03T09:46:04;11.60;;;2.97;;
25535;SDS011;13431;51.352;6.412;2022-08-03T09:48:33;5.57;;;3.05;;
25535;SDS011;13431;51.352;6.412;2022-08-03T09:51:03;4.10;;;2.40;;
25535;SDS011;13431;51.352;6.412;2022-08-03T09:53:51;2.80;;;2.30;;
25535;SDS011;13431;51.352;6.412;2022-08-03T09:56:44;3.08;;;2.50;;
25535;SDS011;13431;51.352;6.412;2022-08-03T09:59:21;2.88;;;2.47;;
25535;SDS011;13431;51.352;6.412;2022-08-03T10:04:24;4.32;;;2.60;;
25535;SDS011;13431;51.352;6.412;2022-08-03T10:07:02;5.53;;;2.42;;
25535;SDS011;13431;51.352;6.412;2022-08-03T10:09:35;7.50;;;2.30;;
25535;SDS011;13431;51.352;6.412;2022-08-03T10:12:07;4.97;;;2.83;;
25535;SDS011;13431;51.352;6.412;2022-08-03T10:14:38;4.82;;;2.10;;
25535;SDS011;13431;51.352;6.412;2022-08-03T10:17:11;3.38;;;2.53;;
25535;SDS011;13431;51.352;6.412;2022-08-03T10:19:39;7.40;;;2.30;;
25535;SDS011;13431;51.352;6.412;2022-08-03T10:22:28;3.17;;;2.28;;
25535;SDS011;13431;51.352;6.412;2022-08-03T10:25:06;3.33;;;1.83;;
25535;SDS011;13431;51.352;6.412;2022-08-03T10:27:40;3.08;;;2.00;;
25535;SDS011;13431;51.352;6.412;2022-08-03T10:30:12;3.80;;;1.92;;
25535;SDS011;13431;51.352;6.412;2022-08-03T10:32:42;3.22;;;2.40;;
25535;SDS011;13431;51.352;6.412;2022-08-03T10:35:15;2.00;;;1.88;;
25535;SDS011;13431;51.352;6.412;2022-08-03T10:40:23;3.25;;;2.08;;
25535;SDS011;13431;51.352;6.412;2022-08-03T10:43:21;4.53;;;1.67;;
25535;SDS011;13431;51.352;6.412;2022-08-03T10:45:53;2.70;;;1.85;;
25535;SDS011;13431;51.352;6.412;2022-08-03T10:48:21;2.67;;;1.73;;
25535;SDS011;13431;51.352;6.412;2022-08-03T10:50:49;3.70;;;1.90;;
25535;SDS011;13431;51.352;6.412;2022-08-03T10:53:32;4.68;;;1.65;;
25535;SDS011;13431;51.352;6.412;2022-08-03T10:56:02;5.13;;;1.95;;
25535;SDS011;13431;51.352;6.412;2022-08-03T10:59:08;3.88;;;2.20;;
25535;SDS011;13431;51.352;6.412;2022-08-03T11:01:52;4.50;;;2.17;;
25535;SDS011;13431;51.352;6.412;2022-08-03T11:04:25;2.67;;;1.95;;
25535;SDS011;13431;51.352;6.412;2022-08-03T11:07:26;2.42;;;1.30;;
25535;SDS011;13431;51.352;6.412;2022-08-03T11:09:53;4.75;;;1.77;;
25535;SDS011;13431;51.352;6.412;2022-08-03T11:12:25;5.03;;;1.67;;
25535;SDS011;13431;51.352;6.412;2022-08-03T11:14:59;4.32;;;1.63;;
25535;SDS011;13431;51.352;6.412;2022-08-03T11:17:28;2.90;;;1.52;;
25535;SDS011;13431;51.352;6.412;2022-08-03T11:19:56;7.30;;;2.08;;
25535;SDS011;13431;51.352;6.412;2022-08-03T11:22:24;3.30;;;1.58;;
25535;SDS011;13431;51.352;6.412;2022-08-03T11:25:17;4.95;;;1.77;;
25535;SDS011;13431;51.352;6.412;2022-08-03T11:28:26;4.30;;;1.90;;
25535;SDS011;13431;51.352;6.412;2022-08-03T11:30:54;2.35;;;1.70;;
25535;SDS011;13431;51.352;6.412;2022-08-03T11:33:28;5.88;;;1.67;;
25535;SDS011;13431;51.352;6.412;2022-08-03T11:35:57;2.75;;;1.50;;
25535;SDS011;13431;51.352;6.412;2022-08-03T11:38:26;4.22;;;2.00;;
25535;SDS011;13431;51.352;6.412;2022-08-03T11:40:54;6.93;;;1.73;;
25535;SDS011;13431;51.352;6.412;2022-08-03T11:51:02;2.90;;;1.50;;
25535;SDS011;13431;51.352;6.412;2022-08-03T11:53:32;3.10;;;1.38;;
25535;SDS011;13431;51.352;6.412;2022-08-03T11:56:08;2.30;;;1.70;;
25535;SDS011;13431;51.352;6.412;2022-08-03T11:58:45;2.47;;;1.42;;
25535;SDS011;13431;51.352;6.412;2022-08-03T12:01:34;4.75;;;1.45;;
25535;SDS011;13431;51.352;6.412;2022-08-03T12:04:02;3.58;;;1.50;;
25535;SDS011;13431;51.352;6.412;2022-08-03T12:06:31;4.60;;;1.80;;
25535;SDS011;13431;51.352;6.412;2022-08-03T12:09:20;2.53;;;1.35;;
25535;SDS011;13431;51.352;6.412;2022-08-03T12:11:48;3.15;;;1.30;;
25535;SDS011;13431;51.352;6.412;2022-08-03T12:14:27;5.82;;;1.30;;
25535;SDS011;13431;51.352;6.412;2022-08-03T12:17:17;5.75;;;1.38;;
25535;SDS011;13431;51.352;6.412;2022-08-03T12:19:45;2.35;;;1.38;;
25535;SDS011;13431;51.352;6.412;2022-08-03T12:22:12;4.45;;;1.10;;
25535;SDS011;13431;51.352;6.412;2022-08-03T12:24:43;4.28;;;1.10;;
25535;SDS011;13431;51.352;6.412;2022-08-03T12:27:23;1.85;;;0.90;;
25535;SDS011;13431;51.352;6.412;2022-08-03T12:29:52;8.45;;;1.38;;
25535;SDS011;13431;51.352;6.412;2022-08-03T12:32:28;3.53;;;1.30;;
25535;SDS011;13431;51.352;6.412;2022-08-03T12:34:56;3.90;;;1.42;;
25535;SDS011;13431;51.352;6.412;2022-08-03T12:37:27;4.60;;;1.10;;
25535;SDS011;13431;51.352;6.412;2022-08-03T12:39:56;5.75;;;1.20;;
25535;SDS011;13431;51.352;6.412;2022-08-03T12:42:36;1.67;;;0.90;;
25535;SDS011;13431;51.352;6.412;2022-08-03T12:47:56;1.63;;;0.90;;
25535;SDS011;13431;51.352;6.412;2022-08-03T12:52:58;2.03;;;1.00;;
25535;SDS011;13431;51.352;6.412;2022-08-03T12:55:27;2.78;;;1.20;;
25535;SDS011;13431;51.352;6.412;2022-08-03T12:58:32;3.47;;;1.05;;
25535;SDS011;13431;51.352;6.412;2022-08-03T13:01:02;3.55;;;1.65;;
25535;SDS011;13431;51.352;6.412;2022-08-03T13:03:39;2.63;;;1.38;;
25535;SDS011;13431;51.352;6.412;2022-08-03T13:06:16;2.47;;;1.05;;
25535;SDS011;13431;51.352;6.412;2022-08-03T13:08:45;2.65;;;0.88;;
25535;SDS011;13431;51.352;6.412;2022-08-03T13:11:21;3.10;;;1.20;;
25535;SDS011;13431;51.352;6.412;2022-08-03T13:14:12;4.82;;;1.08;;
25535;SDS011;13431;51.352;6.412;2022-08-03T13:16:47;4.05;;;1.13;;
25535;SDS011;13431;51.352;6.412;2022-08-03T13:19:14;4.78;;;2.00;;
25535;SDS011;13431;51.352;6.412;2022-08-03T13:21:42;3.13;;;1.10;;
25535;SDS011;13431;51.352;6.412;2022-08-03T13:24:30;2.58;;;0.98;;
25535;SDS011;13431;51.352;6.412;2022-08-03T13:26:59;1.75;;;1.20;;
25535;SDS011;13431;51.352;6.412;2022-08-03T13:29:48;1.45;;;1.27;;
25535;SDS011;13431;51.352;6.412;2022-08-03T13:32:15;2.40;;;1.30;;
25535;SDS011;13431;51.352;6.412;2022-08-03T13:34:43;2.00;;;1.20;;
25535;SDS011;13431;51.352;6.412;2022-08-03T13:37:10;2.17;;;0.98;;
25535;SDS011;13431;51.352;6.412;2022-08-03T13:39:38;2.83;;;1.08;;
25535;SDS011;13431;51.352;6.412;2022-08-03T13:42:31;4.50;;;1.20;;
25535;SDS011;13431;51.352;6.412;2022-08-03T13:45:00;4.68;;;1.05;;
25535;SDS011;13431;51.352;6.412;2022-08-03T13:47:28;3.10;;;1.63;;
25535;SDS011;13431;51.352;6.412;2022-08-03T13:49:56;1.90;;;1.00;;
25535;SDS011;13431;51.352;6.412;2022-08-03T13:52:32;2.80;;;1.13;;
25535;SDS011;13431;51.352;6.412;2022-08-03T13:55:01;3.75;;;1.20;;
25535;SDS011;13431;51.352;6.412;2022-08-03T13:57:30;2.03;;;1.15;;
25535;SDS011;13431;51.352;6.412;2022-08-03T14:00:17;1.95;;;0.98;;
25535;SDS011;13431;51.352;6.412;2022-08-03T14:02:55;3.17;;;1.52;;
25535;SDS011;13431;51.352;6.412;2022-08-03T14:05:31;1.42;;;1.13;;
25535;SDS011;13431;51.352;6.412;2022-08-03T14:07:59;4.45;;;1.08;;
25535;SDS011;13431;51.352;6.412;2022-08-03T14:10:30;2.05;;;1.30;;
25535;SDS011;13431;51.352;6.412;2022-08-03T14:13:02;5.40;;;1.15;;
25535;SDS011;13431;51.352;6.412;2022-08-03T14:15:30;4.40;;;1.40;;
25535;SDS011;13431;51.352;6.412;2022-08-03T14:18:03;19.33;;;2.05;;
25535;SDS011;13431;51.352;6.412;2022-08-03T14:20:31;4.32;;;1.33;;
25535;SDS011;13431;51.352;6.412;2022-08-03T14:25:32;7.70;;;1.77;;
25535;SDS011;13431;51.352;6.412;2022-08-03T14:28:16;1.17;;;1.05;;
25535;SDS011;13431;51.352;6.412;2022-08-03T14:30:44;3.50;;;1.10;;
25535;SDS011;13431;51.352;6.412;2022-08-03T14:33:12;3.45;;;1.30;;
25535;SDS011;13431;51.352;6.412;2022-08-03T14:35:39;1.80;;;1.25;;
25535;SDS011;13431;51.352;6.412;2022-08-03T14:38:07;2.40;;;1.15;;
25535;SDS011;13431;51.352;6.412;2022-08-03T14:40:34;4.05;;;1.20;;
25535;SDS011;13431;51.352;6.412;2022-08-03T14:43:01;4.07;;;1.27;;
25535;SDS011;13431;51.352;6.412;2022-08-03T14:45:29;2.70;;;1.20;;
25535;SDS011;13431;51.352;6.412;2022-08-03T14:47:56;3.42;;;1.25;;
25535;SDS011;13431;51.352;6.412;2022-08-03T14:50:45;2.47;;;1.20;;
25535;SDS011;13431;51.352;6.412;2022-08-03T14:53:17;3.88;;;1.25;;
25535;SDS011;13431;51.352;6.412;2022-08-03T14:55:45;4.97;;;1.67;;
25535;SDS011;13431;51.352;6.412;2022-08-03T14:58:21;3.97;;;1.35;;
25535;SDS011;13431;51.352;6.412;2022-08-03T15:00:50;2.53;;;1.20;;
25535;SDS011;13431;51.352;6.412;2022-08-03T15:03:18;6.07;;;1.30;;
25535;SDS011;13431;51.352;6.412;2022-08-03T15:05:53;2.78;;;1.85;;
25535;SDS011;13431;51.352;6.412;2022-08-03T15:08:22;3.60;;;1.35;;
25535;SDS011;13431;51.352;6.412;2022-08-03T15:10:51;4.32;;;1.48;;
25535;SDS011;13431;51.352;6.412;2022-08-03T15:13:20;2.67;;;1.30;;
25535;SDS011;13431;51.352;6.412;2022-08-03T15:15:48;3.75;;;1.23;;
25535;SDS011;13431;51.352;6.412;2022-08-03T15:18:17;2.33;;;1.80;;
25535;SDS011;13431;51.352;6.412;2022-08-03T15:20:45;4.75;;;1.65;;
25535;SDS011;13431;51.352;6.412;2022-08-03T15:23:15;2.65;;;1.75;;
25535;SDS011;13431;51.352;6.412;2022-08-03T15:25:44;3.03;;;1.20;;
25535;SDS011;13431;51.352;6.412;2022-08-03T15:28:32;4.32;;;1.20;;
25535;SDS011;13431;51.352;6.412;2022-08-03T15:31:03;2.55;;;1.10;;
25535;SDS011;13431;51.352;6.412;2022-08-03T15:33:32;3.95;;;1.55;;
25535;SDS011;13431;51.352;6.412;2022-08-03T15:36:01;3.50;;;1.30;;
25535;SDS011;13431;51.352;6.412;2022-08-03T15:38:29;2.10;;;1.40;;
25535;SDS011;13431;51.352;6.412;2022-08-03T15:40:56;6.15;;;1.73;;
25535;SDS011;13431;51.352;6.412;2022-08-03T15:43:24;8.45;;;1.40;;
25535;SDS011;13431;51.352;6.412;2022-08-03T15:45:52;3.40;;;1.48;;
25535;SDS011;13431;51.352;6.412;2022-08-03T15:48:39;3.00;;;1.50;;
25535;SDS011;13431;51.352;6.412;2022-08-03T15:51:07;5.93;;;1.50;;
25535;SDS011;13431;51.352;6.412;2022-08-03T15:53:36;4.28;;;1.40;;
25535;SDS011;13431;51.352;6.412;2022-08-03T15:56:04;3.28;;;1.33;;